createdAt,value
2023-03-30T00:01:41.404Z,10.13
2023-03-30T00:04:46.286Z,10.47
2023-03-30T00:07:49.658Z,10.70
2023-03-30T00:10:54.721Z,10.53
2023-03-30T00:13:57.694Z,10.67
2023-03-30T00:17:01.075Z,11.87
2023-03-30T00:20:10.228Z,10.47
2023-03-30T00:23:13.525Z,9.30
2023-03-30T00:26:17.500Z,9.70
2023-03-30T00:29:20.519Z,10.23
2023-03-30T00:32:24.815Z,10.13
2023-03-30T00:35:30.647Z,10.00
2023-03-30T00:38:33.875Z,9.60
2023-03-30T00:41:38.026Z,10.00
2023-03-30T00:45:19.373Z,9.63
2023-03-30T00:48:24.879Z,9.47
2023-03-30T00:51:29.957Z,9.90
2023-03-30T00:54:33.144Z,10.60
2023-03-30T00:57:38.868Z,10.17
2023-03-30T01:00:43.506Z,10.33
2023-03-30T01:03:50.724Z,9.93
2023-03-30T01:06:57.952Z,11.57
2023-03-30T01:10:02.199Z,9.90
2023-03-30T01:13:05.428Z,10.00
2023-03-30T01:16:22.454Z,10.10
2023-03-30T01:19:58.720Z,10.10
2023-03-30T01:23:27.544Z,10.20
2023-03-30T01:26:58.050Z,11.10
2023-03-30T01:30:25.569Z,11.27
2023-03-30T01:33:58.973Z,10.20
2023-03-30T01:37:41.540Z,10.57
2023-03-30T01:40:52.714Z,10.63
2023-03-30T01:44:07.408Z,9.87
2023-03-30T01:47:18.616Z,11.17
2023-03-30T01:50:26.823Z,10.97
2023-03-30T01:53:37.271Z,11.13
2023-03-30T01:56:48.457Z,10.73
2023-03-30T01:59:56.351Z,11.83
2023-03-30T02:03:08.732Z,11.30
2023-03-30T02:06:23.235Z,11.47
2023-03-30T02:09:30.301Z,10.57
2023-03-30T02:12:35.927Z,10.33
2023-03-30T02:15:42.873Z,10.97
2023-03-30T02:18:46.455Z,13.97
2023-03-30T02:21:50.466Z,16.60
2023-03-30T02:24:56.320Z,13.20
2023-03-30T02:28:01.554Z,10.53
2023-03-30T02:31:11.250Z,10.80
2023-03-30T02:34:34.828Z,10.43
2023-03-30T02:38:09.731Z,10.93
2023-03-30T02:41:26.273Z,11.03
2023-03-30T02:44:42.630Z,11.53
2023-03-30T02:47:58.447Z,10.40
2023-03-30T02:51:15.903Z,11.57
2023-03-30T02:54:48.978Z,11.27
2023-03-30T02:58:04.077Z,11.37
2023-03-30T03:01:31.481Z,10.97
2023-03-30T03:04:43.436Z,10.97
2023-03-30T03:08:00.150Z,11.57
2023-03-30T03:11:03.585Z,11.93
2023-03-30T03:14:09.522Z,11.17
2023-03-30T03:17:16.799Z,12.13
2023-03-30T03:20:21.621Z,11.93
2023-03-30T03:23:25.819Z,11.53
2023-03-30T03:26:31.645Z,11.63
2023-03-30T03:29:34.866Z,13.47
2023-03-30T03:32:39.217Z,11.87
2023-03-30T03:35:45.779Z,12.30
2023-03-30T03:38:48.888Z,11.80
2023-03-30T03:41:52.733Z,12.27
2023-03-30T03:44:56.021Z,12.60
2023-03-30T03:48:00.626Z,11.43
2023-03-30T03:51:15.421Z,12.50
2023-03-30T03:54:19.199Z,13.03
2023-03-30T03:57:25.491Z,11.90
2023-03-30T04:00:29.370Z,12.40
2023-03-30T04:03:34.459Z,12.77
2023-03-30T04:06:37.428Z,13.87
2023-03-30T04:09:40.417Z,12.80
2023-03-30T04:13:00.876Z,11.90
2023-03-30T04:16:24.205Z,13.17
2023-03-30T04:19:43.416Z,12.07
2023-03-30T04:23:01.648Z,12.63
2023-03-30T04:26:28.568Z,12.17
2023-03-30T04:30:03.554Z,13.23
2023-03-30T04:33:29.154Z,12.30
2023-03-30T04:37:04.426Z,12.37
2023-03-30T04:40:18.530Z,12.20
2023-03-30T04:43:44.681Z,11.43
2023-03-30T04:47:06.187Z,11.37
2023-03-30T04:50:27.383Z,11.30
2023-03-30T04:53:50.300Z,10.83
2023-03-30T04:57:05.955Z,10.80
2023-03-30T05:00:35.560Z,12.63
2023-03-30T05:03:58.855Z,11.70
2023-03-30T05:07:21.608Z,11.30
2023-03-30T05:10:41.707Z,12.17
2023-03-30T05:14:03.624Z,11.33
2023-03-30T05:17:23.383Z,14.60
2023-03-30T05:20:35.200Z,18.50
2023-03-30T05:23:48.544Z,16.50
2023-03-30T05:26:53.273Z,11.07
2023-03-30T05:30:26.563Z,11.47
2023-03-30T05:33:58.787Z,12.03
2023-03-30T05:37:21.528Z,12.50
2023-03-30T05:40:44.988Z,11.67
2023-03-30T05:44:12.736Z,11.40
2023-03-30T05:47:30.619Z,10.73
2023-03-30T05:51:02.606Z,11.23
2023-03-30T05:54:15.700Z,9.67
2023-03-30T05:57:26.538Z,9.50
2023-03-30T06:00:41.608Z,9.30
2023-03-30T06:03:54.570Z,9.30
2023-03-30T06:06:58.240Z,9.77
2023-03-30T06:10:02.195Z,10.93
2023-03-30T06:13:09.100Z,10.30
2023-03-30T06:16:22.001Z,9.90
2023-03-30T06:19:26.244Z,10.00
2023-03-30T06:22:31.898Z,11.27
2023-03-30T06:25:42.349Z,10.87
2023-03-30T06:28:45.350Z,10.47
2023-03-30T06:31:51.253Z,10.63
2023-03-30T06:35:21.169Z,8.17
2023-03-30T06:38:29.452Z,9.70
2023-03-30T06:41:33.332Z,8.60
2023-03-30T06:44:39.738Z,9.07
2023-03-30T06:47:49.332Z,8.70
2023-03-30T06:50:54.242Z,8.47
2023-03-30T06:54:00.619Z,8.50
2023-03-30T06:57:05.856Z,10.33
2023-03-30T07:00:13.592Z,11.77
2023-03-30T07:03:19.162Z,8.83
2023-03-30T07:06:48.643Z,10.50
2023-03-30T07:09:51.905Z,8.93
2023-03-30T07:12:55.618Z,9.10
2023-03-30T07:16:02.072Z,8.00
2023-03-30T07:19:09.488Z,10.00
2023-03-30T07:22:12.565Z,8.60
2023-03-30T07:25:16.451Z,8.47
2023-03-30T07:29:16.054Z,8.50
2023-03-30T07:32:28.223Z,8.40
2023-03-30T07:35:32.640Z,8.70
2023-03-30T07:38:38.617Z,8.23
2023-03-30T07:41:41.819Z,7.90
2023-03-30T07:44:44.916Z,7.90
2023-03-30T07:47:53.057Z,7.83
2023-03-30T07:51:03.468Z,7.03
2023-03-30T07:54:10.245Z,7.23
2023-03-30T07:57:26.581Z,7.10
2023-03-30T08:00:30.846Z,7.80
2023-03-30T08:04:07.377Z,6.87
2023-03-30T08:07:14.389Z,7.93
2023-03-30T08:10:17.538Z,8.10
2023-03-30T08:13:22.089Z,6.87
2023-03-30T08:16:25.392Z,7.63
2023-03-30T08:19:28.755Z,6.63
2023-03-30T08:22:36.202Z,6.97
2023-03-30T08:25:39.770Z,7.33
2023-03-30T08:28:42.904Z,6.67
2023-03-30T08:31:46.630Z,6.67
2023-03-30T08:34:49.733Z,6.67
2023-03-30T08:37:54.586Z,6.17
2023-03-30T08:40:57.513Z,5.80
2023-03-30T08:44:02.739Z,5.63
2023-03-30T08:47:14.007Z,5.20
2023-03-30T08:50:20.026Z,5.83
2023-03-30T08:53:24.381Z,5.30
2023-03-30T08:56:32.772Z,5.05
2023-03-30T08:59:45.521Z,4.50
2023-03-30T09:02:52.875Z,5.50
2023-03-30T09:06:02.034Z,5.18
2023-03-30T09:09:06.882Z,4.75
2023-03-30T09:12:21.799Z,4.68
2023-03-30T09:15:31.944Z,4.97
2023-03-30T09:18:38.887Z,4.90
2023-03-30T09:21:42.408Z,4.38
2023-03-30T09:24:47.251Z,4.88
2023-03-30T09:28:00.684Z,4.50
2023-03-30T09:31:10.875Z,4.30
2023-03-30T09:34:27.236Z,4.57
2023-03-30T09:37:30.263Z,4.88
2023-03-30T09:40:57.124Z,5.32
2023-03-30T09:44:01.824Z,5.07
2023-03-30T09:47:24.440Z,4.60
2023-03-30T09:50:30.081Z,4.95
2023-03-30T09:53:36.602Z,5.18
2023-03-30T09:56:47.690Z,4.50
2023-03-30T09:59:52.829Z,4.30
2023-03-30T10:02:57.982Z,4.68
2023-03-30T10:06:04.914Z,4.53
2023-03-30T10:09:13.144Z,4.50
2023-03-30T10:12:18.033Z,4.97
2023-03-30T10:15:24.577Z,4.65
2023-03-30T10:18:34.770Z,4.60
2023-03-30T10:21:41.052Z,4.80
2023-03-30T10:24:52.088Z,3.75
2023-03-30T10:28:02.932Z,4.78
2023-03-30T10:31:15.491Z,4.55
2023-03-30T10:34:22.229Z,4.88
2023-03-30T10:37:32.017Z,4.32
2023-03-30T10:40:38.514Z,4.78
2023-03-30T10:43:43.761Z,4.43
2023-03-30T10:46:48.077Z,4.50
2023-03-30T10:50:04.238Z,5.05
2023-03-30T10:53:27.334Z,4.90
2023-03-30T10:56:40.024Z,4.70
2023-03-30T11:00:00.175Z,4.50
2023-03-30T11:03:12.952Z,5.07
2023-03-30T11:06:20.925Z,4.03
2023-03-30T11:09:29.955Z,4.30
2023-03-30T11:12:41.419Z,4.60
2023-03-30T11:15:52.064Z,4.80
2023-03-30T11:19:00.736Z,4.20
2023-03-30T11:22:13.281Z,4.43
2023-03-30T11:25:23.277Z,4.47
2023-03-30T11:28:50.457Z,4.38
2023-03-30T11:35:33.298Z,4.47
2023-03-30T11:38:47.171Z,4.50
2023-03-30T11:41:57.436Z,3.83
2023-03-30T11:45:22.338Z,4.57
2023-03-30T11:48:53.852Z,4.65
2023-03-30T11:52:13.642Z,4.72
2023-03-30T11:55:29.714Z,4.75
2023-03-30T11:58:37.374Z,4.50
2023-03-30T12:02:02.779Z,4.97
2023-03-30T12:05:16.524Z,4.68
2023-03-30T12:08:42.159Z,4.40
2023-03-30T12:11:50.449Z,4.45
2023-03-30T12:15:05.800Z,4.45
2023-03-30T12:18:26.492Z,3.75
2023-03-30T12:21:43.763Z,4.72
2023-03-30T12:24:53.028Z,4.72
2023-03-30T12:28:05.401Z,4.85
2023-03-30T12:31:08.630Z,6.15
2023-03-30T12:34:11.807Z,4.40
2023-03-30T12:37:21.157Z,4.18
2023-03-30T12:40:29.521Z,4.32
2023-03-30T12:44:00.318Z,3.53
2023-03-30T12:47:36.116Z,4.68
2023-03-30T12:50:47.539Z,4.18
2023-03-30T12:54:14.413Z,4.45
2023-03-30T12:57:34.482Z,4.60
2023-03-30T13:01:02.530Z,4.03
2023-03-30T13:04:10.668Z,3.72
2023-03-30T13:07:18.628Z,4.47
2023-03-30T13:10:41.649Z,4.22
2023-03-30T13:14:00.180Z,4.35
2023-03-30T13:17:17.325Z,4.00
2023-03-30T13:23:34.137Z,4.55
2023-03-30T13:26:43.907Z,4.00
2023-03-30T13:29:57.038Z,4.38
2023-03-30T13:33:12.659Z,3.92
2023-03-30T13:36:26.097Z,4.18
2023-03-30T13:39:41.794Z,7.00
2023-03-30T13:43:07.778Z,6.32
2023-03-30T13:46:50.204Z,5.22
2023-03-30T13:50:04.388Z,4.68
2023-03-30T13:53:18.583Z,5.50
2023-03-30T13:56:27.250Z,4.80
2023-03-30T13:59:34.126Z,4.45
2023-03-30T14:02:41.593Z,3.13
2023-03-30T14:05:45.248Z,4.40
2023-03-30T14:08:50.635Z,4.43
2023-03-30T14:11:56.225Z,5.90
2023-03-30T14:15:04.126Z,6.77
2023-03-30T14:18:22.614Z,4.87
2023-03-30T14:21:25.678Z,4.60
2023-03-30T14:24:33.501Z,4.17
2023-03-30T14:27:39.153Z,4.23
2023-03-30T14:30:51.227Z,5.23
2023-03-30T14:33:56.064Z,4.53
2023-03-30T14:37:02.204Z,4.27
2023-03-30T14:40:16.937Z,4.67
2023-03-30T14:43:25.513Z,4.73
2023-03-30T14:46:37.162Z,5.03
2023-03-30T14:49:44.785Z,4.93
2023-03-30T14:52:48.687Z,4.43
2023-03-30T14:55:56.943Z,5.40
2023-03-30T14:59:00.705Z,5.43
2023-03-30T15:02:05.709Z,6.23
2023-03-30T15:05:12.093Z,8.80
2023-03-30T15:08:22.962Z,4.57
2023-03-30T15:11:28.626Z,4.83
2023-03-30T15:14:38.286Z,4.70
2023-03-30T15:17:47.736Z,4.57
2023-03-30T15:21:00.533Z,6.37
2023-03-30T15:24:19.320Z,4.80
2023-03-30T15:27:24.129Z,5.93
2023-03-30T15:30:31.401Z,5.13
2023-03-30T15:33:42.949Z,5.60
2023-03-30T15:36:55.878Z,5.83
2023-03-30T15:40:07.350Z,5.97
2023-03-30T15:43:20.736Z,5.27
2023-03-30T15:46:24.613Z,5.77
2023-03-30T15:49:31.802Z,6.77
2023-03-30T15:52:38.961Z,5.57
2023-03-30T15:55:45.397Z,6.47
2023-03-30T15:58:50.420Z,7.30
2023-03-30T16:01:57.785Z,6.80
2023-03-30T16:05:18.701Z,6.90
2023-03-30T16:08:23.892Z,9.67
2023-03-30T16:11:27.751Z,5.97
2023-03-30T16:14:33.407Z,7.43
2023-03-30T16:17:37.468Z,7.83
2023-03-30T16:20:40.962Z,8.00
2023-03-30T16:23:48.158Z,6.37
2023-03-30T16:26:51.258Z,6.23
2023-03-30T16:29:54.362Z,6.57
2023-03-30T16:33:00.773Z,4.70
2023-03-30T16:36:10.118Z,5.90
2023-03-30T16:39:20.337Z,6.57
2023-03-30T16:42:26.892Z,5.23
2023-03-30T16:45:30.343Z,5.50
2023-03-30T16:48:33.315Z,5.60
2023-03-30T16:51:43.912Z,6.30
2023-03-30T16:54:48.738Z,5.80
2023-03-30T16:57:54.805Z,5.80
2023-03-30T17:01:03.932Z,7.10
2023-03-30T17:04:09.635Z,5.80
2023-03-30T17:07:12.662Z,6.43
2023-03-30T17:10:25.392Z,6.00
2023-03-30T17:13:28.983Z,5.60
2023-03-30T17:16:36.858Z,5.43
2023-03-30T17:19:40.202Z,5.90
2023-03-30T17:22:45.208Z,6.10
2023-03-30T17:25:50.863Z,5.67
2023-03-30T17:28:53.998Z,6.37
2023-03-30T17:31:57.076Z,5.87
2023-03-30T17:35:00.361Z,5.97
2023-03-30T17:38:03.739Z,5.27
2023-03-30T17:41:12.850Z,5.87
2023-03-30T17:44:16.267Z,5.60
2023-03-30T17:47:19.545Z,6.90
2023-03-30T17:50:27.292Z,7.33
2023-03-30T17:53:31.514Z,6.60
2023-03-30T17:56:38.904Z,6.63
2023-03-30T17:59:42.102Z,7.27
2023-03-30T18:02:45.636Z,8.20
2023-03-30T18:05:50.500Z,10.77
2023-03-30T18:08:53.477Z,10.07
2023-03-30T18:11:57.825Z,9.20
2023-03-30T18:15:00.763Z,8.93
2023-03-30T18:18:09.087Z,9.00
2023-03-30T18:21:20.413Z,9.27
2023-03-30T18:24:23.505Z,9.60
2023-03-30T18:27:52.755Z,8.83
2023-03-30T18:31:03.946Z,9.53
2023-03-30T18:34:07.362Z,11.07
2023-03-30T18:37:11.408Z,8.37
2023-03-30T18:40:24.475Z,8.33
2023-03-30T18:43:52.778Z,8.03
2023-03-30T18:46:56.999Z,8.30
2023-03-30T18:50:04.674Z,7.80
2023-03-30T18:53:11.915Z,8.23
2023-03-30T18:56:14.896Z,8.37
2023-03-30T18:59:22.955Z,8.20
2023-03-30T19:02:26.350Z,8.27
2023-03-30T19:05:33.124Z,8.30
2023-03-30T19:08:36.279Z,7.30
2023-03-30T19:11:39.348Z,8.73
2023-03-30T19:14:43.598Z,9.00
2023-03-30T19:17:47.181Z,7.93
2023-03-30T19:20:51.903Z,7.70
2023-03-30T19:23:56.480Z,8.03
2023-03-30T19:26:59.807Z,6.90
2023-03-30T19:30:05.007Z,6.13
2023-03-30T19:33:11.912Z,4.40
2023-03-30T19:36:15.042Z,3.63
2023-03-30T19:39:18.010Z,3.50
2023-03-30T19:42:22.090Z,3.20
2023-03-30T19:45:26.608Z,3.13
2023-03-30T19:48:30.069Z,2.80
2023-03-30T19:51:33.118Z,4.33
2023-03-30T19:54:36.208Z,2.83
2023-03-30T19:57:41.986Z,2.97
2023-03-30T20:00:49.396Z,3.30
2023-03-30T20:03:52.476Z,3.27
2023-03-30T20:06:56.187Z,3.03
2023-03-30T20:09:59.218Z,3.33
2023-03-30T20:13:02.284Z,2.97
2023-03-30T20:16:07.172Z,3.40
2023-03-30T20:19:26.522Z,3.10
2023-03-30T20:22:30.026Z,3.40
2023-03-30T20:25:33.097Z,3.37
2023-03-30T20:28:36.242Z,3.00
2023-03-30T20:31:42.693Z,3.07
2023-03-30T20:34:46.772Z,3.93
2023-03-30T20:37:49.789Z,3.37
2023-03-30T20:40:56.729Z,4.33
2023-03-30T20:44:03.254Z,4.13
2023-03-30T20:47:08.879Z,3.83
2023-03-30T20:50:12.384Z,4.10
2023-03-30T20:53:17.021Z,3.67
2023-03-30T20:56:20.722Z,4.77
2023-03-30T20:59:24.037Z,3.67
2023-03-30T21:02:30.256Z,4.33
2023-03-30T21:05:34.621Z,4.03
2023-03-30T21:08:38.114Z,4.90
2023-03-30T21:11:41.171Z,3.93
2023-03-30T21:14:45.852Z,4.03
2023-03-30T21:17:50.280Z,4.10
2023-03-30T21:20:53.732Z,3.53
2023-03-30T21:23:57.931Z,4.43
2023-03-30T21:27:03.327Z,3.83
2023-03-30T21:30:10.216Z,3.80
2023-03-30T21:33:17.485Z,3.63
2023-03-30T21:36:21.264Z,4.07
2023-03-30T21:39:28.097Z,4.73
2023-03-30T21:42:31.309Z,6.00
2023-03-30T21:45:34.253Z,4.77
2023-03-30T21:48:41.171Z,5.47
2023-03-30T21:51:44.185Z,7.43
2023-03-30T21:54:47.125Z,6.10
2023-03-30T21:57:50.178Z,5.73
2023-03-30T22:01:08.927Z,7.30
2023-03-30T22:04:16.002Z,5.53
2023-03-30T22:07:19.147Z,5.37
2023-03-30T22:10:22.501Z,5.17
2023-03-30T22:13:27.672Z,4.80
2023-03-30T22:16:33.230Z,5.77
2023-03-30T22:19:38.774Z,5.43
2023-03-30T22:22:41.821Z,4.70
2023-03-30T22:25:44.883Z,5.27
2023-03-30T22:28:48.034Z,5.00
2023-03-30T22:31:56.038Z,5.50
2023-03-30T22:35:00.388Z,5.50
2023-03-30T22:38:03.419Z,5.30
2023-03-30T22:41:10.257Z,5.80
2023-03-30T22:44:13.234Z,6.53
2023-03-30T22:47:16.556Z,7.20
2023-03-30T22:50:21.952Z,8.17
2023-03-30T22:53:24.949Z,6.00
2023-03-30T22:56:30.275Z,6.23
2023-03-30T22:59:35.961Z,5.90
2023-03-30T23:02:39.596Z,6.07
2023-03-30T23:05:53.829Z,5.70
2023-03-30T23:08:57.366Z,7.53
2023-03-30T23:12:00.740Z,6.07
2023-03-30T23:15:04.768Z,7.70
2023-03-30T23:18:08.028Z,6.63
2023-03-30T23:21:13.969Z,6.50
2023-03-30T23:24:17.208Z,6.27
2023-03-30T23:27:20.234Z,6.13
2023-03-30T23:30:26.023Z,5.80
2023-03-30T23:33:29.550Z,5.73
2023-03-30T23:36:34.855Z,7.50
2023-03-30T23:39:37.961Z,7.63
2023-03-30T23:42:40.908Z,5.10
2023-03-30T23:45:44.283Z,4.70
2023-03-30T23:48:47.332Z,4.87
2023-03-30T23:51:51.771Z,4.90
2023-03-30T23:54:54.967Z,4.93
2023-03-30T23:57:57.949Z,4.20
